Time;durP1;ratioP1;P1;durP2;ratioP2;P2;SDS_P1;SDS_P2;PMS_P1;PMS_P2;Temp;Humidity;BMP_temperature;BMP_pressure;BME280_temperature;BME280_humidity;BME280_pressure;Samples;Min_cycle;Max_cycle;Signal;HPM_P1;HPM_P2
2024/01/23 00:02:09;;;;;;;12.10;3.35;;;7.00;99.90;;;7.77;100.00;100369.13;5012750;28;20049;-80
2024/01/23 00:04:35;;;;;;;17.00;3.22;;;7.00;99.90;;;7.83;100.00;100365.59;5029261;28;20045;-79
2024/01/23 00:07:01;;;;;;;19.35;3.92;;;7.00;99.90;;;7.78;100.00;100365.38;5012690;28;20033;-79
2024/01/23 00:09:27;;;;;;;14.90;2.92;;;7.00;99.90;;;7.92;100.00;100366.25;5030335;28;20083;-79
2024/01/23 00:11:54;;;;;;;19.42;3.40;;;7.00;99.90;;;7.86;100.00;100378.75;5012069;28;20398;-79
2024/01/23 00:14:20;;;;;;;20.93;3.70;;;7.00;99.90;;;7.86;100.00;100384.19;5028960;28;20503;-79
2024/01/23 00:16:45;;;;;;;18.17;3.15;;;7.10;99.90;;;7.96;100.00;100382.97;5026366;28;20120;-80
2024/01/23 00:19:11;;;;;;;24.08;4.03;;;7.10;99.90;;;7.84;100.00;100386.28;5029374;28;20053;-79
2024/01/23 00:21:37;;;;;;;19.77;4.22;;;7.00;99.90;;;7.48;100.00;100396.38;5030184;28;20473;-79
2024/01/23 00:24:03;;;;;;;14.57;3.33;;;6.90;99.90;;;7.02;100.00;100411.41;5029336;28;20029;-78
2024/01/23 00:26:29;;;;;;;19.42;3.83;;;6.60;99.90;;;6.93;100.00;100396.31;5030026;28;20626;-78
2024/01/23 00:28:54;;;;;;;16.70;3.33;;;6.40;99.90;;;6.83;100.00;100391.25;5030492;28;20071;-79
2024/01/23 00:31:20;;;;;;;19.90;3.60;;;6.20;99.90;;;6.80;100.00;100393.50;5033697;28;20041;-78
2024/01/23 00:33:46;;;;;;;16.58;3.35;;;6.20;99.90;;;6.90;100.00;100394.84;5029333;28;20056;-78
2024/01/23 00:36:12;;;;;;;12.57;4.07;;;6.20;99.90;;;6.92;100.00;100394.66;5029720;28;20041;-78
2024/01/23 00:38:38;;;;;;;14.77;3.20;;;6.20;99.90;;;7.01;100.00;100385.31;5028432;28;20517;-79
2024/01/23 00:41:03;;;;;;;21.85;3.70;;;6.20;99.90;;;6.94;100.00;100397.16;5029949;28;20469;-78
2024/01/23 00:43:30;;;;;;;16.08;3.15;;;6.20;99.90;;;7.01;100.00;100376.31;5029231;28;20037;-79
2024/01/23 00:45:56;;;;;;;13.10;2.60;;;6.20;99.90;;;7.09;100.00;100386.19;5029019;28;20079;-79
2024/01/23 00:48:21;;;;;;;19.38;3.40;;;6.20;99.90;;;7.10;100.00;100388.69;5029570;28;20037;-79
2024/01/23 00:50:47;;;;;;;17.30;3.85;;;6.20;99.90;;;7.04;100.00;100406.59;5029099;28;20116;-80
2024/01/23 00:53:13;;;;;;;19.55;3.58;;;6.20;99.90;;;7.08;100.00;100403.50;5029486;28;20077;-79
2024/01/23 00:55:39;;;;;;;17.70;3.42;;;6.20;99.90;;;7.07;100.00;100408.09;5029050;28;20069;-80
2024/01/23 00:58:04;;;;;;;16.42;2.95;;;6.30;99.90;;;7.22;100.00;100404.41;5029572;28;20044;-79
2024/01/23 01:00:30;;;;;;;13.55;2.90;;;6.30;99.90;;;7.10;100.00;100404.13;5044264;28;20436;-78
2024/01/23 01:02:56;;;;;;;15.50;3.85;;;6.40;99.90;;;7.19;100.00;100411.09;5010869;28;20053;-79
2024/01/23 01:05:22;;;;;;;13.02;3.00;;;6.30;99.90;;;7.11;100.00;100414.78;5026673;28;20041;-78
2024/01/23 01:07:48;;;;;;;23.17;4.13;;;6.40;99.90;;;7.16;100.00;100419.59;5044372;28;20401;-78
2024/01/23 01:10:13;;;;;;;16.52;3.05;;;6.40;99.90;;;7.27;100.00;100427.19;5028448;28;21105;-78
2024/01/23 01:12:39;;;;;;;18.48;3.00;;;6.40;99.90;;;7.33;100.00;100439.13;5029062;28;20042;-78
2024/01/23 01:15:05;;;;;;;16.80;3.10;;;6.50;99.90;;;7.38;100.00;100427.66;5028300;28;20040;-79
2024/01/23 01:17:32;;;;;;;18.13;3.05;;;6.50;99.90;;;7.42;100.00;100443.34;5028335;28;20048;-80
2024/01/23 01:19:58;;;;;;;14.10;2.83;;;6.60;99.90;;;7.41;100.00;100463.38;5029339;28;20112;-80
2024/01/23 01:22:24;;;;;;;16.08;2.97;;;6.60;99.90;;;7.30;100.00;100466.69;5029450;28;20041;-80
2024/01/23 01:24:49;;;;;;;19.60;3.40;;;6.50;99.90;;;7.38;100.00;100479.22;5021833;28;20045;-80
2024/01/23 01:27:15;;;;;;;16.23;2.88;;;6.50;99.90;;;7.51;100.00;100475.75;5029825;28;20065;-80
2024/01/23 01:29:41;;;;;;;13.85;2.50;;;6.50;99.90;;;7.47;100.00;100478.03;5029675;28;20041;-81
2024/01/23 01:32:07;;;;;;;18.65;3.13;;;6.50;99.90;;;7.44;100.00;100478.44;5028699;28;20456;-79
2024/01/23 01:34:33;;;;;;;13.80;2.67;;;6.60;99.90;;;7.32;100.00;100475.44;5012133;28;20436;-78
2024/01/23 01:36:59;;;;;;;13.30;2.72;;;6.60;99.90;;;7.40;100.00;100482.56;5028769;28;20060;-80
2024/01/23 01:39:25;;;;;;;15.63;3.03;;;6.60;99.90;;;7.39;100.00;100484.47;5043837;28;20049;-79
2024/01/23 01:41:52;;;;;;;15.95;2.55;;;6.70;99.90;;;7.45;100.00;100489.09;5043299;28;20030;-79
2024/01/23 01:44:18;;;;;;;11.55;2.30;;;6.70;99.90;;;7.52;100.00;100480.13;5028402;28;20036;-79
2024/01/23 01:46:44;;;;;;;11.38;2.13;;;6.70;99.90;;;7.60;100.00;100497.09;5028775;28;20041;-79
2024/01/23 01:49:11;;;;;;;13.93;2.33;;;6.70;99.90;;;7.58;100.00;100496.47;5027491;28;20032;-79
2024/01/23 01:51:38;;;;;;;12.05;2.35;;;6.70;99.90;;;7.59;100.00;100498.13;5010724;28;20141;-79
2024/01/23 01:54:04;;;;;;;14.80;3.33;;;6.70;99.90;;;7.47;100.00;100487.00;5027197;28;21729;-79
2024/01/23 01:56:31;;;;;;;11.52;2.40;;;6.80;99.90;;;7.60;100.00;100494.38;5028319;28;20061;-80
2024/01/23 01:58:57;;;;;;;13.18;2.22;;;6.80;99.90;;;7.50;100.00;100504.78;5028604;28;20033;-79
2024/01/23 02:01:25;;;;;;;11.63;2.22;;;6.80;99.90;;;7.52;100.00;100497.28;5027702;28;20539;-81
2024/01/23 02:03:51;;;;;;;12.30;2.05;;;6.90;99.90;;;7.56;100.00;100511.28;5011229;28;20037;-79
2024/01/23 02:06:17;;;;;;;8.80;2.10;;;6.90;99.90;;;7.64;100.00;100513.84;5011860;28;20033;-79
2024/01/23 02:08:43;;;;;;;12.10;2.00;;;6.90;99.90;;;7.63;100.00;100534.72;5043872;28;20128;-79
2024/01/23 02:11:09;;;;;;;15.23;2.10;;;7.00;99.90;;;7.75;100.00;100528.72;5011101;28;20033;-80
2024/01/23 02:13:35;;;;;;;10.70;2.38;;;7.00;99.90;;;7.72;100.00;100521.00;5017912;28;20132;-79
2024/01/23 02:16:02;;;;;;;17.42;2.05;;;7.10;99.90;;;7.75;100.00;100523.28;5028450;28;20048;-80
2024/01/23 02:18:28;;;;;;;8.98;2.15;;;7.20;99.90;;;7.78;100.00;100531.03;5011510;28;20049;-79
2024/01/23 02:20:54;;;;;;;13.77;2.05;;;7.20;99.90;;;7.77;100.00;100521.22;5043294;28;20042;-80
2024/01/23 02:23:19;;;;;;;13.35;2.90;;;7.10;99.90;;;7.82;100.00;100537.75;5028811;28;20030;-81
2024/01/23 02:25:45;;;;;;;15.80;2.05;;;7.20;99.90;;;7.80;100.00;100542.53;5047484;28;20091;-79
2024/01/23 02:28:12;;;;;;;14.95;2.28;;;7.20;99.90;;;7.67;100.00;100542.44;5031078;28;20041;-79
2024/01/23 02:30:38;;;;;;;14.80;2.33;;;7.30;99.90;;;7.72;100.00;100540.81;5031443;28;20498;-79
2024/01/23 02:33:06;;;;;;;17.25;2.47;;;7.30;99.90;;;7.92;100.00;100540.91;5030690;28;20065;-80
2024/01/23 02:35:33;;;;;;;15.45;2.67;;;7.20;99.90;;;7.88;100.00;100546.97;5015006;28;20570;-81
2024/01/23 02:37:59;;;;;;;15.55;2.58;;;7.20;99.90;;;7.61;100.00;100544.94;5014422;28;20048;-79
2024/01/23 02:40:25;;;;;;;12.70;2.35;;;7.10;99.90;;;7.76;100.00;100547.53;5013609;28;20106;-79
2024/01/23 02:42:52;;;;;;;14.25;2.80;;;7.00;99.90;;;7.64;100.00;100557.28;5032353;28;20046;-80
2024/01/23 02:45:18;;;;;;;16.75;2.63;;;7.00;99.90;;;7.70;100.00;100555.66;5031867;28;20041;-79
2024/01/23 02:47:43;;;;;;;16.75;2.75;;;7.00;99.90;;;7.66;100.00;100563.34;5014609;28;20033;-79
2024/01/23 02:50:10;;;;;;;14.25;2.30;;;7.00;99.90;;;7.73;100.00;100557.97;5030767;28;20120;-80
2024/01/23 02:52:36;;;;;;;12.80;2.22;;;7.00;99.90;;;7.62;100.00;100559.38;5008181;28;20044;-79
2024/01/23 02:55:02;;;;;;;14.93;2.33;;;7.00;99.90;;;7.66;100.00;100559.78;5046521;28;20038;-78
2024/01/23 02:57:27;;;;;;;18.60;2.47;;;7.10;99.90;;;7.71;100.00;100570.91;5031689;28;20043;-77
2024/01/23 02:59:54;;;;;;;11.57;1.85;;;7.10;99.90;;;7.76;100.00;100569.25;5030207;28;20037;-80
2024/01/23 03:02:22;;;;;;;11.18;2.38;;;7.10;99.90;;;7.71;100.00;100576.34;5030930;28;20065;-78
2024/01/23 03:04:48;;;;;;;14.10;2.25;;;7.20;99.90;;;7.80;100.00;100572.41;5014699;28;20045;-78
2024/01/23 03:07:16;;;;;;;12.60;2.35;;;7.10;99.90;;;7.76;100.00;100587.44;5029834;28;20034;-78
2024/01/23 03:09:42;;;;;;;14.30;2.60;;;7.10;99.90;;;7.73;100.00;100577.81;5013460;28;20036;-77
2024/01/23 03:12:18;;;;;;;13.93;2.40;;;7.00;99.90;;;7.51;100.00;100601.47;5030648;28;20064;-79
2024/01/23 03:14:45;;;;;;;10.38;2.08;;;7.00;99.90;;;7.51;100.00;100589.75;5014477;28;20056;-79
2024/01/23 03:17:12;;;;;;;14.27;2.90;;;6.90;99.90;;;7.39;100.00;100606.59;5030669;28;20116;-77
2024/01/23 03:19:39;;;;;;;17.90;2.72;;;6.80;99.90;;;7.47;100.00;100624.63;5031284;28;20136;-77
2024/01/23 03:22:05;;;;;;;14.48;2.33;;;6.80;99.90;;;7.45;100.00;100629.41;5029947;28;20034;-78
2024/01/23 03:24:32;;;;;;;12.13;2.95;;;6.80;99.90;;;7.53;100.00;100622.97;5031405;28;20037;-80
2024/01/23 03:26:58;;;;;;;14.20;2.25;;;6.80;99.90;;;7.47;100.00;100605.63;5013458;28;20548;-79
2024/01/23 03:29:25;;;;;;;11.27;2.00;;;6.90;99.90;;;7.34;100.00;100626.19;5045515;28;20044;-78
2024/01/23 03:31:51;;;;;;;18.33;2.47;;;6.90;99.90;;;7.46;100.00;100636.53;5014240;28;20033;-79
2024/01/23 03:34:19;;;;;;;13.02;1.83;;;6.90;99.90;;;7.54;100.00;100625.50;5029937;28;20037;-77
2024/01/23 03:36:45;;;;;;;13.30;2.40;;;6.90;99.90;;;7.42;100.00;100641.50;5046683;28;20025;-78
2024/01/23 03:39:12;;;;;;;11.52;1.77;;;7.00;99.90;;;7.54;100.00;100647.22;5031341;28;20121;-77
2024/01/23 03:41:38;;;;;;;13.25;2.20;;;7.00;99.90;;;7.46;100.00;100640.06;5031225;28;20116;-79
2024/01/23 03:44:07;;;;;;;14.82;2.20;;;6.90;99.90;;;7.36;100.00;100638.72;5030225;28;20029;-78
2024/01/23 03:46:34;;;;;;;15.85;2.47;;;6.80;99.90;;;7.27;100.00;100655.16;5021329;28;20045;-79
2024/01/23 03:48:59;;;;;;;10.13;1.88;;;6.80;99.90;;;7.36;100.00;100671.28;5025906;28;20041;-77
2024/01/23 03:51:26;;;;;;;13.65;2.10;;;6.70;99.90;;;7.31;100.00;100667.28;5013295;28;20033;-78
2024/01/23 03:53:51;;;;;;;14.18;2.97;;;6.70;99.90;;;7.46;100.00;100669.09;5029773;28;20389;-79
2024/01/23 03:56:18;;;;;;;11.18;2.00;;;6.80;99.90;;;7.51;100.00;100674.78;5030000;28;20029;-78
2024/01/23 03:58:44;;;;;;;12.90;2.15;;;6.80;99.90;;;7.41;100.00;100664.25;5012084;28;20045;-80
2024/01/23 04:01:10;;;;;;;12.13;2.25;;;6.80;99.90;;;7.39;100.00;100660.03;5030851;28;20026;-79
2024/01/23 04:03:35;;;;;;;14.02;2.42;;;6.90;99.90;;;7.43;100.00;100677.63;5044319;28;20046;-78
2024/01/23 04:06:02;;;;;;;12.32;2.55;;;6.90;99.90;;;7.47;100.00;100682.47;5030736;28;20038;-78
2024/01/23 04:08:27;;;;;;;11.05;3.55;;;6.90;99.90;;;7.47;100.00;100700.63;5029552;28;20033;-79
2024/01/23 04:10:54;;;;;;;12.60;2.45;;;6.90;99.90;;;7.56;100.00;100685.03;5030257;28;20041;-78
2024/01/23 04:13:19;;;;;;;11.68;1.92;;;6.90;99.90;;;7.67;100.00;100703.50;5029521;28;20033;-79
2024/01/23 04:15:45;;;;;;;12.50;1.77;;;7.00;99.90;;;7.72;100.00;100698.34;5028302;28;20037;-79
2024/01/23 04:18:11;;;;;;;15.25;2.35;;;7.00;99.90;;;7.71;100.00;100722.97;5029977;28;20059;-77
2024/01/23 04:20:38;;;;;;;12.57;2.30;;;7.00;99.90;;;7.71;100.00;100703.97;5029757;28;20033;-78
2024/01/23 04:23:03;;;;;;;14.02;2.42;;;7.00;99.90;;;7.59;100.00;100703.66;5029905;28;20033;-80
2024/01/23 04:25:29;;;;;;;14.48;2.25;;;7.00;99.90;;;7.67;100.00;100708.09;5029787;28;20041;-78
2024/01/23 04:27:55;;;;;;;14.15;2.47;;;7.00;99.90;;;7.62;100.00;100731.25;5029799;28;20449;-80
2024/01/23 04:30:21;;;;;;;12.55;1.73;;;7.00;99.90;;;7.66;100.00;100709.13;5043510;28;20038;-78
2024/01/23 04:32:47;;;;;;;12.77;2.60;;;7.00;99.90;;;7.62;100.00;100722.28;5031582;28;20033;-79
2024/01/23 04:35:13;;;;;;;11.95;2.28;;;7.00;99.90;;;7.79;100.00;100739.13;5029537;28;20040;-79
2024/01/23 04:37:38;;;;;;;13.00;2.13;;;7.00;99.90;;;7.65;100.00;100742.75;5028051;28;20094;-78
2024/01/23 04:40:07;;;;;;;14.85;2.42;;;7.00;99.90;;;7.60;100.00;100746.06;5044671;28;20043;-78
2024/01/23 04:42:36;;;;;;;13.75;2.30;;;7.00;99.90;;;7.72;100.00;100743.66;5023360;28;20072;-78
2024/01/23 04:45:03;;;;;;;11.27;1.83;;;7.00;99.90;;;7.70;100.00;100760.16;5028226;28;20502;-79
2024/01/23 04:47:29;;;;;;;14.68;2.10;;;7.10;99.90;;;7.73;100.00;100765.19;5028560;28;20068;-79
2024/01/23 04:49:55;;;;;;;16.73;2.42;;;7.00;99.90;;;7.65;100.00;100756.31;5029237;28;20436;-78
2024/01/23 04:52:21;;;;;;;16.10;2.28;;;7.00;99.90;;;7.65;100.00;100772.63;5029072;28;20025;-77
2024/01/23 04:54:46;;;;;;;14.52;2.15;;;7.00;99.90;;;7.62;100.00;100761.13;5028842;28;20101;-79
2024/01/23 04:57:14;;;;;;;14.85;2.42;;;7.00;99.90;;;7.53;100.00;100781.28;5029070;28;20037;-78
2024/01/23 04:59:40;;;;;;;13.63;2.42;;;6.90;99.90;;;7.72;100.00;100778.97;5029499;28;20135;-78
2024/01/23 05:02:06;;;;;;;12.15;2.00;;;6.90;99.90;;;7.47;100.00;100799.19;5029296;28;20489;-81
2024/01/23 05:04:32;;;;;;;22.33;2.28;;;6.90;99.90;;;7.55;100.00;100803.66;5029078;28;20091;-76
2024/01/23 05:06:58;;;;;;;13.88;2.25;;;7.00;99.90;;;7.55;100.00;100798.22;5024124;28;20038;-78
2024/01/23 05:09:24;;;;;;;12.02;2.03;;;6.90;99.90;;;7.56;100.00;100807.19;5011795;28;20071;-77
2024/01/23 05:11:50;;;;;;;13.85;2.67;;;7.00;99.90;;;7.60;100.00;100822.94;5029872;28;20082;-78
2024/01/23 05:14:17;;;;;;;9.32;2.35;;;6.90;99.90;;;7.61;100.00;100843.63;5029817;28;20050;-78
2024/01/23 05:16:43;;;;;;;13.10;2.15;;;6.90;99.90;;;7.52;100.00;100839.34;5012567;28;20037;-79
2024/01/23 05:19:09;;;;;;;11.65;2.47;;;6.90;99.90;;;7.59;100.00;100853.81;5010748;28;20096;-78
2024/01/23 05:21:35;;;;;;;15.63;2.63;;;6.90;99.90;;;7.52;100.00;100852.06;5041835;28;20112;-79
2024/01/23 05:24:02;;;;;;;15.48;2.22;;;6.80;99.90;;;7.65;100.00;100875.81;5029396;28;20046;-78
2024/01/23 05:26:29;;;;;;;11.55;1.85;;;6.80;99.90;;;7.51;100.00;100875.69;5014857;28;20047;-79
2024/01/23 05:28:54;;;;;;;17.10;3.33;;;6.80;99.90;;;7.52;100.00;100871.06;5042650;28;20057;-78
2024/01/23 05:31:20;;;;;;;14.18;2.40;;;6.80;99.90;;;7.51;100.00;100874.81;5044410;28;20103;-78
2024/01/23 05:33:46;;;;;;;12.43;1.77;;;6.80;99.90;;;7.46;100.00;100878.94;5043883;28;20045;-79
2024/01/23 05:36:12;;;;;;;10.45;1.98;;;6.80;99.90;;;7.45;100.00;100882.69;5028692;28;20052;-78
2024/01/23 05:38:37;;;;;;;16.25;2.42;;;6.70;99.90;;;7.42;100.00;100871.38;5028778;28;20084;-78
2024/01/23 05:41:03;;;;;;;14.55;2.92;;;6.80;99.90;;;7.59;100.00;100880.97;5029008;28;20397;-78
2024/01/23 05:43:29;;;;;;;15.05;2.10;;;6.80;99.90;;;7.48;100.00;100860.59;5027644;28;20037;-77
2024/01/23 05:45:55;;;;;;;12.45;2.28;;;6.80;99.90;;;7.57;100.00;100880.34;5026055;28;20333;-78
2024/01/23 05:48:21;;;;;;;16.58;2.55;;;6.80;99.90;;;7.55;100.00;100889.69;5028035;28;20052;-77
2024/01/23 05:50:47;;;;;;;14.35;2.38;;;6.80;99.90;;;7.47;100.00;100893.38;5027568;28;20474;-77
2024/01/23 05:53:13;;;;;;;12.90;2.47;;;6.80;99.90;;;7.51;100.00;100899.25;5029383;28;20175;-76
2024/01/23 05:55:39;;;;;;;14.10;2.55;;;6.80;99.90;;;7.47;100.00;100906.94;5010331;28;20799;-77
2024/01/23 05:58:09;;;;;;;13.57;2.40;;;6.80;99.90;;;7.43;100.00;100900.22;5031200;28;20510;-78
2024/01/23 06:00:35;;;;;;;18.20;2.63;;;6.80;99.90;;;7.51;100.00;100913.69;5048008;28;20037;-78
2024/01/23 06:03:01;;;;;;;13.75;2.45;;;6.80;99.90;;;7.44;100.00;100902.72;5000313;28;20101;-78
2024/01/23 06:05:26;;;;;;;18.30;2.72;;;6.80;99.90;;;7.40;100.00;100922.28;4989846;28;20038;-77
2024/01/23 06:07:52;;;;;;;13.57;2.65;;;6.90;99.90;;;7.46;100.00;100919.69;4992648;28;20030;-79
2024/01/23 06:10:18;;;;;;;19.25;2.22;;;6.80;99.90;;;7.43;100.00;100936.34;4991375;28;20410;-79
2024/01/23 06:12:44;;;;;;;17.60;2.65;;;6.90;99.90;;;7.44;100.00;100934.47;4993246;28;20030;-77
2024/01/23 06:15:11;;;;;;;13.93;2.10;;;6.90;99.90;;;7.51;100.00;100931.84;4991479;28;20030;-76
2024/01/23 06:17:37;;;;;;;17.27;2.80;;;6.90;99.90;;;7.63;100.00;100931.16;4992723;28;20043;-77
2024/01/23 06:20:04;;;;;;;13.35;2.40;;;6.80;99.90;;;7.40;100.00;100927.72;4991190;28;20488;-80
2024/01/23 06:22:36;;;;;;;20.27;2.72;;;6.80;99.90;;;7.48;100.00;100950.19;4986706;28;20081;-77
2024/01/23 06:25:07;;;;;;;17.95;2.65;;;6.80;99.90;;;7.49;100.00;100965.44;4990372;28;20030;-77
2024/01/23 06:27:35;;;;;;;12.88;2.53;;;6.80;99.90;;;7.43;100.00;100949.91;4973956;28;20042;-78
2024/01/23 06:30:01;;;;;;;11.13;2.33;;;6.90;99.90;;;7.43;100.00;100962.66;4990430;28;20160;-80
2024/01/23 06:32:26;;;;;;;19.20;3.13;;;6.90;99.90;;;7.43;100.00;100970.81;4992259;28;20038;-81
2024/01/23 06:34:52;;;;;;;15.98;2.50;;;6.80;99.90;;;7.50;100.00;100988.03;4991243;28;20117;-81
2024/01/23 06:37:19;;;;;;;13.45;2.30;;;6.80;99.90;;;7.44;100.00;100983.34;4993005;28;20033;-81
2024/01/23 06:39:46;;;;;;;16.77;2.57;;;6.80;99.90;;;7.56;100.00;100984.53;4993364;28;20077;-81
2024/01/23 06:42:12;;;;;;;13.50;2.58;;;6.80;99.90;;;7.47;100.00;101000.09;4991889;28;20035;-82
2024/01/23 06:44:39;;;;;;;10.23;2.38;;;6.80;99.90;;;7.31;100.00;101003.00;4992565;28;20057;-79
2024/01/23 06:47:05;;;;;;;14.07;2.30;;;6.80;99.90;;;7.38;100.00;101017.50;5007607;28;20089;-81
2024/01/23 06:49:31;;;;;;;19.65;3.25;;;6.80;99.90;;;7.27;100.00;101009.81;4993054;28;20038;-79
2024/01/23 06:51:57;;;;;;;17.85;2.65;;;6.70;99.90;;;7.30;100.00;101021.16;4993728;28;20387;-80
2024/01/23 06:54:23;;;;;;;19.20;2.78;;;6.70;99.90;;;7.20;100.00;101031.44;5005378;28;20505;-78
2024/01/23 06:56:49;;;;;;;16.65;2.97;;;6.60;99.90;;;7.18;100.00;101030.78;4991299;28;20026;-81
2024/01/23 06:59:17;;;;;;;12.05;2.47;;;6.50;99.90;;;6.92;100.00;101007.63;4992686;28;20073;-80
2024/01/23 07:01:43;;;;;;;15.95;2.80;;;6.50;99.90;;;6.85;100.00;101020.22;5000096;28;20485;-81
2024/01/23 07:04:09;;;;;;;21.45;3.33;;;6.40;99.90;;;6.93;100.00;101044.56;5014613;28;20108;-80
2024/01/23 07:06:35;;;;;;;18.48;3.25;;;6.30;99.90;;;7.00;100.00;101031.97;5031663;28;20041;-81
2024/01/23 07:09:00;;;;;;;20.55;2.65;;;6.40;99.90;;;6.93;100.00;101051.84;5031127;28;20492;-78
2024/01/23 07:11:27;;;;;;;18.73;2.85;;;6.30;99.90;;;6.58;100.00;101047.72;5011769;28;20034;-79
2024/01/23 07:13:53;;;;;;;15.98;2.55;;;6.20;99.90;;;6.30;100.00;101052.81;5003512;28;20038;-80
2024/01/23 07:16:19;;;;;;;11.18;2.80;;;6.00;99.90;;;6.21;100.00;101041.19;4994316;28;20374;-79
2024/01/23 07:18:45;;;;;;;20.45;3.22;;;5.90;99.90;;;6.22;100.00;101047.44;5030950;28;20515;-79
2024/01/23 07:21:11;;;;;;;17.73;3.33;;;5.70;99.90;;;6.09;100.00;101051.56;5031282;28;20045;-78
2024/01/23 07:23:37;;;;;;;19.45;2.80;;;5.70;99.90;;;6.09;100.00;101056.16;5030806;28;20036;-79
2024/01/23 07:26:03;;;;;;;17.25;2.90;;;5.60;99.90;;;6.02;100.00;101066.84;5031599;28;20495;-79
2024/01/23 07:28:29;;;;;;;21.80;2.72;;;5.50;99.90;;;6.07;100.00;101050.91;5046906;28;20041;-79
2024/01/23 07:30:55;;;;;;;17.73;2.72;;;5.60;99.90;;;6.22;100.00;101088.09;5015113;28;20049;-77
2024/01/23 07:33:20;;;;;;;18.20;2.45;;;5.70;99.90;;;6.19;100.00;101073.88;5032951;28;20029;-78
2024/01/23 07:35:46;;;;;;;19.35;3.38;;;5.70;99.90;;;6.30;100.00;101107.00;5030119;28;20041;-78
2024/01/23 07:38:12;;;;;;;18.38;2.75;;;5.70;99.90;;;6.36;100.00;101084.63;5013532;28;20041;-78
2024/01/23 07:40:38;;;;;;;21.65;3.30;;;5.80;99.90;;;6.41;100.00;101095.78;5031345;28;20432;-77
2024/01/23 07:43:04;;;;;;;21.58;3.08;;;5.90;99.90;;;6.47;100.00;101102.34;5030558;28;20037;-78
2024/01/23 07:45:30;;;;;;;17.10;3.00;;;6.00;99.90;;;6.52;100.00;101112.66;5005922;28;20045;-77
2024/01/23 07:47:56;;;;;;;21.13;3.13;;;6.00;99.90;;;6.60;100.00;101124.31;5013326;28;20045;-77
2024/01/23 07:50:22;;;;;;;18.20;3.25;;;6.10;99.90;;;6.73;100.00;101133.69;5031109;28;20145;-78
2024/01/23 07:52:48;;;;;;;17.08;2.65;;;6.20;99.90;;;6.87;100.00;101148.34;5030278;28;20079;-78
2024/01/23 07:55:14;;;;;;;14.98;2.60;;;6.30;99.90;;;6.90;100.00;101135.28;5030591;28;20084;-78
2024/01/23 07:57:40;;;;;;;17.75;2.67;;;6.40;99.90;;;7.03;100.00;101136.56;5013817;28;20116;-77
2024/01/23 08:00:07;;;;;;;18.10;2.90;;;6.50;99.90;;;7.13;100.00;101163.44;5029976;28;20065;-77
2024/01/23 08:02:33;;;;;;;17.52;3.20;;;6.50;99.90;;;7.16;100.00;101152.22;5029542;28;20429;-77
2024/01/23 08:05:00;;;;;;;18.98;3.35;;;6.60;99.90;;;7.16;100.00;101171.19;5030720;28;20404;-76
2024/01/23 08:07:25;;;;;;;16.08;2.88;;;6.60;99.90;;;7.29;100.00;101181.44;5013245;28;20037;-78
2024/01/23 08:09:51;;;;;;;16.23;2.75;;;6.70;99.90;;;7.31;100.00;101169.41;5027399;28;20041;-78
2024/01/23 08:12:18;;;;;;;19.08;4.45;;;6.60;99.90;;;7.32;100.00;101165.66;5030826;28;20025;-77
2024/01/23 08:14:44;;;;;;;14.60;2.50;;;6.60;99.90;;;7.28;100.00;101180.63;5030592;28;20120;-78
2024/01/23 08:17:13;;;;;;;19.52;3.25;;;6.70;99.90;;;7.45;100.00;101175.91;5029876;28;20062;-79
2024/01/23 08:19:42;;;;;;;18.52;3.22;;;6.70;99.90;;;7.15;100.00;101170.38;5044987;28;20038;-79
2024/01/23 08:22:08;;;;;;;15.50;2.95;;;6.70;99.90;;;7.36;100.00;101170.72;5029865;28;20028;-79
2024/01/23 08:24:33;;;;;;;16.42;3.13;;;6.70;99.90;;;7.38;100.00;101185.81;5030667;28;20064;-78
2024/01/23 08:26:59;;;;;;;20.80;3.33;;;6.70;99.90;;;7.47;100.00;101194.72;5029802;28;20040;-78
2024/01/23 08:29:25;;;;;;;17.45;3.17;;;6.70;99.90;;;7.47;100.00;101194.72;5012556;28;20167;-80
2024/01/23 08:31:50;;;;;;;21.35;3.40;;;6.70;99.90;;;7.40;100.00;101218.19;5045781;28;20045;-78
2024/01/23 08:34:16;;;;;;;20.98;3.58;;;6.80;99.90;;;7.43;100.00;101215.13;5029551;28;20040;-79
2024/01/23 08:36:42;;;;;;;19.00;2.58;;;6.90;99.90;;;7.54;100.00;101217.41;5012725;28;20044;-77
2024/01/23 08:39:08;;;;;;;18.15;3.10;;;6.90;99.90;;;7.44;100.00;101244.81;5029877;28;20037;-78
2024/01/23 08:41:34;;;;;;;27.35;3.15;;;6.90;99.90;;;7.36;100.00;101235.88;5030143;28;20057;-78
2024/01/23 08:44:00;;;;;;;22.15;3.38;;;6.90;99.90;;;7.39;100.00;101243.66;5030411;28;20033;-77
2024/01/23 08:46:25;;;;;;;24.42;3.20;;;6.80;99.90;;;7.43;100.00;101274.88;5013877;28;20064;-78
2024/01/23 08:48:51;;;;;;;19.45;3.30;;;6.80;99.90;;;7.39;100.00;101254.50;5045023;28;20038;-76
2024/01/23 08:51:17;;;;;;;21.95;3.00;;;6.80;99.90;;;7.36;100.00;101273.88;5012670;28;20487;-77
2024/01/23 08:53:43;;;;;;;16.13;2.95;;;6.80;99.90;;;7.41;100.00;101280.47;5029178;28;20064;-76
2024/01/23 08:56:09;;;;;;;22.88;4.15;;;6.90;99.90;;;7.41;100.00;101261.44;5029880;28;20496;-78
2024/01/23 08:58:34;;;;;;;22.23;3.40;;;6.90;99.90;;;7.49;100.00;101268.69;5012809;28;20037;-78
2024/01/23 09:01:00;;;;;;;19.02;2.40;;;6.90;99.90;;;7.56;100.00;101298.66;5045007;28;20037;-79
2024/01/23 09:03:26;;;;;;;19.70;3.45;;;6.90;99.90;;;7.59;100.00;101295.63;5030245;28;20060;-78
2024/01/23 09:05:52;;;;;;;16.92;3.38;;;6.90;99.90;;;7.47;100.00;101301.44;4997394;28;20042;-79
2024/01/23 09:08:17;;;;;;;18.45;3.40;;;6.90;99.90;;;7.60;100.00;101298.13;5011630;28;20037;-78
2024/01/23 09:10:43;;;;;;;20.48;3.58;;;6.90;99.90;;;7.74;100.00;101314.69;5016783;28;20049;-79
2024/01/23 09:13:09;;;;;;;21.83;3.60;;;6.90;99.90;;;7.65;100.00;101319.31;5029332;28;20029;-79
2024/01/23 09:15:36;;;;;;;18.08;3.42;;;6.90;99.90;;;7.60;100.00;101330.72;5011639;28;20048;-77
2024/01/23 09:18:02;;;;;;;17.98;3.92;;;7.00;99.90;;;7.79;100.00;101331.28;5028761;28;20041;-79
2024/01/23 09:20:30;;;;;;;21.92;3.38;;;7.00;99.90;;;7.66;100.00;101341.88;5028813;28;20026;-79
2024/01/23 09:22:55;;;;;;;19.08;3.13;;;7.00;99.90;;;7.77;100.00;101327.91;5045111;28;20425;-79
2024/01/23 09:25:21;;;;;;;17.63;2.78;;;7.00;99.90;;;7.83;100.00;101358.94;5028593;28;20041;-79
2024/01/23 09:27:48;;;;;;;17.42;3.30;;;7.00;99.90;;;7.73;100.00;101348.31;5044860;28;20033;-79
2024/01/23 09:30:15;;;;;;;17.95;3.13;;;7.00;99.90;;;7.70;100.00;101352.22;5044882;28;20056;-79
2024/01/23 09:32:41;;;;;;;19.10;3.58;;;7.00;99.90;;;7.68;100.00;101359.69;5031976;28;20041;-79
2024/01/23 09:35:07;;;;;;;19.13;3.80;;;7.00;99.90;;;7.68;100.00;101362.41;5047941;28;20103;-79
2024/01/23 09:37:33;;;;;;;19.27;4.18;;;7.00;99.90;;;7.80;100.00;101360.13;5018296;28;20421;-78
2024/01/23 09:39:59;;;;;;;21.98;3.35;;;7.10;99.90;;;7.83;100.00;101373.34;5032955;28;20061;-81
2024/01/23 09:42:27;;;;;;;20.17;3.67;;;7.10;99.90;;;7.98;100.00;101365.25;5015336;28;20428;-78
2024/01/23 09:44:55;;;;;;;23.67;3.67;;;7.20;99.90;;;8.04;100.00;101380.00;5033443;28;20037;-79
2024/01/23 09:47:23;;;;;;;20.10;2.97;;;7.20;99.90;;;8.04;100.00;101388.16;5033462;28;20036;-80
2024/01/23 09:49:51;;;;;;;23.33;3.05;;;7.30;99.90;;;7.95;100.00;101370.19;5033876;28;20041;-79
2024/01/23 09:52:19;;;;;;;;;;;7.30;99.90;;;7.94;100.00;101387.53;5033798;28;20032;-78
2024/01/23 09:54:45;;;;;;;18.05;3.00;;;7.30;99.90;;;8.02;100.00;101382.88;5009852;28;19921;-78
2024/01/23 09:57:12;;;;;;;18.95;3.60;;;7.30;99.90;;;8.11;100.00;101382.84;5033835;28;20033;-79
2024/01/23 09:59:38;;;;;;;19.05;3.47;;;7.30;99.90;;;8.14;100.00;101385.19;5033216;28;20550;-78
2024/01/23 10:02:08;;;;;;;20.45;3.65;;;7.30;99.90;;;7.98;100.00;101387.00;5015284;28;20061;-77
2024/01/23 10:04:35;;;;;;;17.85;3.25;;;7.30;99.90;;;7.91;100.00;101381.44;5032607;28;20050;-78
2024/01/23 10:07:07;;;;;;;21.42;3.30;;;7.20;99.90;;;7.74;100.00;101390.75;5028434;28;20034;-79
2024/01/23 10:09:33;;;;;;;21.25;4.93;;;7.10;99.90;;;7.65;100.00;101392.66;5026703;28;20528;-79